Iona Mcallister — WDD4840 — position and weather

sailwx.info

Track history (hours):
 
Tides and Currents Weather Stations Pressure Air Temp Water Temp Dewpoint Dewpoint Depression Visibility Wind Speed Wind Dir Waves Ship Positions

Iona Mcallister

Owner: McAllister Towing & Transportation Co. Inc., Staten Island, NY. More information available from US FCC via Universal Licensing System and Coast Guard Vessel Documentation Center.

Last reported at 2014-Nov-22 21:33 UTC. Time now 2014-Nov-22 21:35 UTC.
Position N 41°26' W 071°16'.

Length 36 m; draft 4 m.

Type: Towing. MMSI: 367149890.

Date/timePositionNaut miles runAvg speedWind from/ knotsBaromVisibWave heightAir tempDewpointWater temp
2014-Nov-22 21:33N 41°26' W 071°16'3 3.3
2014-Nov-22 20:31N 41°25' W 071°12'64 3.5
2014-Nov-22 02:33N 42°26' W 070°47'4 3.4
2014-Nov-22 01:31N 42°29' W 070°44'5 4.1
2014-Nov-22 00:17N 42°32' W 070°39'9 3.2
2014-Nov-21 21:23N 42°41' W 070°33'4 4.7
2014-Nov-21 20:33N 42°44' W 070°36'5 5.1
2014-Nov-21 19:33N 42°47' W 070°41'7 5.1
2014-Nov-21 18:16N 42°54' W 070°43'10 5.6
2014-Nov-21 16:34N 43°03' W 070°42'2 0.5
2014-Nov-21 11:25N 43°05' W 070°44'10 5.3
2014-Nov-21 09:32N 42°56' W 070°39'8 7.9
2014-Nov-21 08:33N 42°48' W 070°35'17 7.1
2014-Nov-21 06:12N 42°32' W 070°40'  
2014-Nov-17 17:19N 41°27' W 071°02'7 9.3
2014-Nov-17 16:33N 41°26' W 071°12'8 7.9
2014-Nov-17 15:33N 41°28' W 071°22'10 9.7
2014-Nov-17 14:33N 41°37' W 071°18'9 9.3
2014-Nov-17 13:33N 41°45' W 071°23'4 3.6
2014-Nov-17 12:33N 41°49' W 071°24'0 0.0
2014-Nov-17 11:33N 41°49' W 071°24'0 0.0
2014-Nov-17 10:33N 41°49' W 071°24'0 0.0
2014-Nov-17 09:33N 41°49' W 071°24'0 0.0
2014-Nov-17 08:33N 41°49' W 071°24'0 0.0
2014-Nov-17 07:33N 41°49' W 071°24'0 0.0
2014-Nov-17 06:33N 41°49' W 071°24'0 0.0
2014-Nov-17 05:33N 41°49' W 071°24'0 0.0
2014-Nov-17 04:33N 41°49' W 071°24'0 0.0
2014-Nov-17 03:33N 41°49' W 071°24'0 0.0
2014-Nov-17 02:33N 41°49' W 071°24'1 0.7
2014-Nov-17 01:33N 41°48' W 071°24'2 1.7
2014-Nov-17 00:33N 41°47' W 071°22'0 0.0
2014-Nov-16 23:33N 41°47' W 071°22'2 1.8
2014-Nov-16 22:33N 41°48' W 071°24'1 0.5
2014-Nov-16 21:29N 41°49' W 071°24'0 0.0
2014-Nov-16 20:33N 41°49' W 071°24'2 1.9
2014-Nov-16 19:28N 41°47' W 071°23'8 8.7
2014-Nov-16 18:33N 41°40' W 071°19'6 6.2
2014-Nov-16 17:33N 41°42' W 071°11'0 0.1
2014-Nov-16 16:33N 41°42' W 071°11'1 0.9
2014-Nov-16 15:33N 41°43' W 071°11'3 2.8
2014-Nov-16 14:33N 41°40' W 071°13'5 5.3
2014-Nov-16 13:33N 41°42' W 071°20'7 7.4
2014-Nov-16 12:33N 41°49' W 071°24'0 0.0
2014-Nov-16 11:33N 41°49' W 071°24'1 0.8
2014-Nov-16 10:10N 41°48' W 071°23'1 0.9
2014-Nov-16 09:33N 41°47' W 071°23'2 1.8
2014-Nov-16 08:33N 41°49' W 071°24'0 0.0
2014-Nov-16 07:33N 41°49' W 071°24'0 0.0
2014-Nov-16 06:33N 41°49' W 071°24'0 0.0
2014-Nov-16 05:33N 41°49' W 071°24'0 0.0
2014-Nov-16 04:33N 41°49' W 071°24'0 0.0
2014-Nov-16 03:33N 41°49' W 071°24'0 0.0
2014-Nov-16 02:33N 41°49' W 071°24'0 0.0
2014-Nov-16 01:33N 41°49' W 071°24'0 0.0
2014-Nov-16 00:33N 41°49' W 071°24'0 0.0
2014-Nov-15 23:33N 41°49' W 071°24'0 0.0
2014-Nov-15 22:33N 41°49' W 071°24'0 0.0
2014-Nov-15 21:33N 41°49' W 071°24'0 0.0
2014-Nov-15 20:32N 41°49' W 071°24'0 0.0
2014-Nov-15 18:23N 41°49' W 071°24'0 0.0
2014-Nov-15 17:29N 41°49' W 071°24'0 0.0
2014-Nov-15 15:23N 41°49' W 071°24'0 0.0
2014-Nov-15 14:07N 41°49' W 071°24'0 0.0
2014-Nov-15 12:18N 41°49' W 071°24'0 0.0
2014-Nov-15 11:33N 41°49' W 071°24'0 0.0
2014-Nov-15 10:33N 41°49' W 071°24'0 0.0
2014-Nov-15 09:34N 41°49' W 071°24'0 0.0
2014-Nov-15 08:33N 41°49' W 071°24'0 0.0
2014-Nov-15 07:33N 41°49' W 071°24'0 0.0
2014-Nov-15 06:33N 41°49' W 071°24'0 0.0
2014-Nov-15 05:31N 41°49' W 071°24'0 0.0
2014-Nov-15 04:34N 41°49' W 071°24'0 0.0
2014-Nov-15 03:20N 41°49' W 071°24'0 0.0
2014-Nov-15 02:33N 41°49' W 071°24'0 0.0
2014-Nov-15 00:31N 41°49' W 071°24'0 0.0
2014-Nov-14 23:34N 41°49' W 071°24'0 0.0
2014-Nov-14 22:33N 41°49' W 071°24'0 0.0
2014-Nov-14 21:33N 41°49' W 071°24'0 0.0
2014-Nov-14 20:33N 41°49' W 071°24'0 0.0
2014-Nov-14 19:34N 41°49' W 071°24'0 0.0
2014-Nov-14 18:32N 41°49' W 071°24'1 1.5
2014-Nov-14 17:33N 41°48' W 071°23'1 1.4
2014-Nov-14 16:33N 41°49' W 071°24'1 0.1
2014-Nov-14 11:21N 41°48' W 071°24'0 0.1
2014-Nov-14 07:08N 41°48' W 071°23'0 0.0
2014-Nov-14 06:33N 41°48' W 071°23'0 0.0
2014-Nov-14 05:33N 41°48' W 071°23'0 0.0
2014-Nov-14 04:33N 41°48' W 071°23'0 0.0
2014-Nov-14 03:31N 41°48' W 071°23'0 0.2
2014-Nov-14 01:27N 41°48' W 071°23'1 1.0
2014-Nov-14 00:33N 41°47' W 071°22'1 0.2
2014-Nov-13 22:12N 41°47' W 071°23'1 1.0
2014-Nov-13 21:33N 41°47' W 071°22'7 7.5
2014-Nov-13 20:33N 41°39' W 071°22'3 2.8
2014-Nov-13 19:30N 41°37' W 071°24'0 0.0
2014-Nov-13 18:30N 41°37' W 071°24'0 0.0
2014-Nov-13 14:15N 41°37' W 071°24'0 0.0
2014-Nov-13 13:33N 41°37' W 071°24'0 0.0
2014-Nov-13 12:34N 41°37' W 071°24'0 0.0
2014-Nov-13 11:34N 41°37' W 071°24'0 0.5
2014-Nov-13 10:32N 41°37' W 071°24'5 4.3
2014-Nov-13 09:26N 41°32' W 071°21'6 7.3
2014-Nov-13 08:33N 41°26' W 071°21'9 8.8
2014-Nov-13 07:33N 41°26' W 071°09'27 4.5
2014-Nov-13 01:33N 41°42' W 070°40'  
Track history (hours):
 
Tides and Currents Weather Stations Pressure Air Temp Water Temp Dewpoint Dewpoint Depression Visibility Wind Speed Wind Dir Waves Ship Positions

Iona Mcallister

Owner: McAllister Towing & Transportation Co. Inc., Staten Island, NY. More information available from US FCC via Universal Licensing System and Coast Guard Vessel Documentation Center.

Last reported at 2014-Nov-22 21:33 UTC. Time now 2014-Nov-22 21:35 UTC.
Position N 41°26' W 071°16'.

Length 36 m; draft 4 m.

Type: Towing. MMSI: 367149890.

Date/timePositionNaut miles runAvg speedWind from/ knotsBaromVisibWave heightAir tempDewpointWater temp
2014-Nov-22 21:33N 41°26' W 071°16'3 3.3
2014-Nov-22 20:31N 41°25' W 071°12'64 3.5
2014-Nov-22 02:33N 42°26' W 070°47'4 3.4
2014-Nov-22 01:31N 42°29' W 070°44'5 4.1
2014-Nov-22 00:17N 42°32' W 070°39'9 3.2
2014-Nov-21 21:23N 42°41' W 070°33'4 4.7
2014-Nov-21 20:33N 42°44' W 070°36'5 5.1
2014-Nov-21 19:33N 42°47' W 070°41'7 5.1
2014-Nov-21 18:16N 42°54' W 070°43'10 5.6
2014-Nov-21 16:34N 43°03' W 070°42'2 0.5
2014-Nov-21 11:25N 43°05' W 070°44'10 5.3
2014-Nov-21 09:32N 42°56' W 070°39'8 7.9
2014-Nov-21 08:33N 42°48' W 070°35'17 7.1
2014-Nov-21 06:12N 42°32' W 070°40'  
2014-Nov-17 17:19N 41°27' W 071°02'7 9.3
2014-Nov-17 16:33N 41°26' W 071°12'8 7.9
2014-Nov-17 15:33N 41°28' W 071°22'10 9.7
2014-Nov-17 14:33N 41°37' W 071°18'9 9.3
2014-Nov-17 13:33N 41°45' W 071°23'4 3.6
2014-Nov-17 12:33N 41°49' W 071°24'0 0.0
2014-Nov-17 11:33N 41°49' W 071°24'0 0.0
2014-Nov-17 10:33N 41°49' W 071°24'0 0.0
2014-Nov-17 09:33N 41°49' W 071°24'0 0.0
2014-Nov-17 08:33N 41°49' W 071°24'0 0.0
2014-Nov-17 07:33N 41°49' W 071°24'0 0.0
2014-Nov-17 06:33N 41°49' W 071°24'0 0.0
2014-Nov-17 05:33N 41°49' W 071°24'0 0.0
2014-Nov-17 04:33N 41°49' W 071°24'0 0.0
2014-Nov-17 03:33N 41°49' W 071°24'0 0.0
2014-Nov-17 02:33N 41°49' W 071°24'1 0.7
2014-Nov-17 01:33N 41°48' W 071°24'2 1.7
2014-Nov-17 00:33N 41°47' W 071°22'0 0.0
2014-Nov-16 23:33N 41°47' W 071°22'2 1.8
2014-Nov-16 22:33N 41°48' W 071°24'1 0.5
2014-Nov-16 21:29N 41°49' W 071°24'0 0.0
2014-Nov-16 20:33N 41°49' W 071°24'2 1.9
2014-Nov-16 19:28N 41°47' W 071°23'8 8.7
2014-Nov-16 18:33N 41°40' W 071°19'6 6.2
2014-Nov-16 17:33N 41°42' W 071°11'0 0.1
2014-Nov-16 16:33N 41°42' W 071°11'1 0.9
2014-Nov-16 15:33N 41°43' W 071°11'3 2.8
2014-Nov-16 14:33N 41°40' W 071°13'5 5.3
2014-Nov-16 13:33N 41°42' W 071°20'7 7.4
2014-Nov-16 12:33N 41°49' W 071°24'0 0.0
2014-Nov-16 11:33N 41°49' W 071°24'1 0.8
2014-Nov-16 10:10N 41°48' W 071°23'1 0.9
2014-Nov-16 09:33N 41°47' W 071°23'2 1.8
2014-Nov-16 08:33N 41°49' W 071°24'0 0.0
2014-Nov-16 07:33N 41°49' W 071°24'0 0.0
2014-Nov-16 06:33N 41°49' W 071°24'0 0.0
2014-Nov-16 05:33N 41°49' W 071°24'0 0.0
2014-Nov-16 04:33N 41°49' W 071°24'0 0.0
2014-Nov-16 03:33N 41°49' W 071°24'0 0.0
2014-Nov-16 02:33N 41°49' W 071°24'0 0.0
2014-Nov-16 01:33N 41°49' W 071°24'0 0.0
2014-Nov-16 00:33N 41°49' W 071°24'0 0.0
2014-Nov-15 23:33N 41°49' W 071°24'0 0.0
2014-Nov-15 22:33N 41°49' W 071°24'0 0.0
2014-Nov-15 21:33N 41°49' W 071°24'0 0.0
2014-Nov-15 20:32N 41°49' W 071°24'0 0.0
2014-Nov-15 18:23N 41°49' W 071°24'0 0.0
2014-Nov-15 17:29N 41°49' W 071°24'0 0.0
2014-Nov-15 15:23N 41°49' W 071°24'0 0.0
2014-Nov-15 14:07N 41°49' W 071°24'0 0.0
2014-Nov-15 12:18N 41°49' W 071°24'0 0.0
2014-Nov-15 11:33N 41°49' W 071°24'0 0.0
2014-Nov-15 10:33N 41°49' W 071°24'0 0.0
2014-Nov-15 09:34N 41°49' W 071°24'0 0.0
2014-Nov-15 08:33N 41°49' W 071°24'0 0.0
2014-Nov-15 07:33N 41°49' W 071°24'0 0.0
2014-Nov-15 06:33N 41°49' W 071°24'0 0.0
2014-Nov-15 05:31N 41°49' W 071°24'0 0.0
2014-Nov-15 04:34N 41°49' W 071°24'0 0.0
2014-Nov-15 03:20N 41°49' W 071°24'0 0.0
2014-Nov-15 02:33N 41°49' W 071°24'0 0.0
2014-Nov-15 00:31N 41°49' W 071°24'0 0.0
2014-Nov-14 23:34N 41°49' W 071°24'0 0.0
2014-Nov-14 22:33N 41°49' W 071°24'0 0.0
2014-Nov-14 21:33N 41°49' W 071°24'0 0.0
2014-Nov-14 20:33N 41°49' W 071°24'0 0.0
2014-Nov-14 19:34N 41°49' W 071°24'0 0.0
2014-Nov-14 18:32N 41°49' W 071°24'1 1.5
2014-Nov-14 17:33N 41°48' W 071°23'1 1.4
2014-Nov-14 16:33N 41°49' W 071°24'1 0.1
2014-Nov-14 11:21N 41°48' W 071°24'0 0.1
2014-Nov-14 07:08N 41°48' W 071°23'0 0.0
2014-Nov-14 06:33N 41°48' W 071°23'0 0.0
2014-Nov-14 05:33N 41°48' W 071°23'0 0.0
2014-Nov-14 04:33N 41°48' W 071°23'0 0.0
2014-Nov-14 03:31N 41°48' W 071°23'0 0.2
2014-Nov-14 01:27N 41°48' W 071°23'1 1.0
2014-Nov-14 00:33N 41°47' W 071°22'1 0.2
2014-Nov-13 22:12N 41°47' W 071°23'1 1.0
2014-Nov-13 21:33N 41°47' W 071°22'7 7.5
2014-Nov-13 20:33N 41°39' W 071°22'3 2.8
2014-Nov-13 19:30N 41°37' W 071°24'0 0.0
2014-Nov-13 18:30N 41°37' W 071°24'0 0.0
2014-Nov-13 14:15N 41°37' W 071°24'0 0.0
2014-Nov-13 13:33N 41°37' W 071°24'0 0.0
2014-Nov-13 12:34N 41°37' W 071°24'0 0.0
2014-Nov-13 11:34N 41°37' W 071°24'0 0.5
2014-Nov-13 10:32N 41°37' W 071°24'5 4.3
2014-Nov-13 09:26N 41°32' W 071°21'6 7.3
2014-Nov-13 08:33N 41°26' W 071°21'9 8.8
2014-Nov-13 07:33N 41°26' W 071°09'27 4.5
2014-Nov-13 01:33N 41°42' W 070°40'  

Dump ship's entire track history